Glover, Vermont
Current Conditions -  °F | °C
As of 9:35 PM on Friday 28 Nov 2014 (Local Time) from KCDA Reporting Station
Light Snow Light Snow  
Wind Chill: -9°   Ceiling: 3000
Heat Index: -9°   Visibility: 5mi
Dew Point: -12°   Wind: 3mph
Humidity: 80%   Direction: 230°SW
Pressure: 30.12"   Gusts: NA
Location:  44.7°N, 72.21°W
Report Text: KCDA 290235Z AUTO 23003KT 5SM -SN BKN030 BKN037 M09/M12 A3012 RMK AO2 T10941122
Loading
Personal Weather Stations






























Interactive Weather Map New forecast layout! Learn more

10-Day Weather Forecast

Advertisements
Track Severe Weather on mobile